sensor_id;sensor_type;location;lat;lon;timestamp;P1;durP1;ratioP1;P2;durP2;ratioP2
9330;SDS011;4704;50.470;12.072;2023-06-19T00:02:09;7.97;;;7.38;;
9330;SDS011;4704;50.470;12.072;2023-06-19T00:04:36;7.82;;;7.22;;
9330;SDS011;4704;50.470;12.072;2023-06-19T00:07:05;8.30;;;7.60;;
9330;SDS011;4704;50.470;12.072;2023-06-19T00:09:34;8.07;;;7.47;;
9330;SDS011;4704;50.470;12.072;2023-06-19T00:12:01;8.13;;;7.53;;
9330;SDS011;4704;50.470;12.072;2023-06-19T00:14:29;8.80;;;8.10;;
9330;SDS011;4704;50.470;12.072;2023-06-19T00:16:56;8.02;;;7.38;;
9330;SDS011;4704;50.470;12.072;2023-06-19T00:19:26;8.68;;;7.97;;
9330;SDS011;4704;50.470;12.072;2023-06-19T00:21:54;8.30;;;7.70;;
9330;SDS011;4704;50.470;12.072;2023-06-19T00:24:23;8.48;;;7.88;;
9330;SDS011;4704;50.470;12.072;2023-06-19T00:26:51;8.38;;;7.78;;
9330;SDS011;4704;50.470;12.072;2023-06-19T00:29:18;8.20;;;7.53;;
9330;SDS011;4704;50.470;12.072;2023-06-19T00:31:46;7.40;;;6.90;;
9330;SDS011;4704;50.470;12.072;2023-06-19T00:34:14;7.97;;;7.38;;
9330;SDS011;4704;50.470;12.072;2023-06-19T00:36:41;8.07;;;7.47;;
9330;SDS011;4704;50.470;12.072;2023-06-19T00:39:08;7.88;;;7.18;;
9330;SDS011;4704;50.470;12.072;2023-06-19T00:41:38;7.80;;;7.20;;
9330;SDS011;4704;50.470;12.072;2023-06-19T00:44:06;8.15;;;7.45;;
9330;SDS011;4704;50.470;12.072;2023-06-19T00:46:34;8.00;;;7.40;;
9330;SDS011;4704;50.470;12.072;2023-06-19T00:49:03;8.02;;;7.32;;
9330;SDS011;4704;50.470;12.072;2023-06-19T00:51:30;8.35;;;7.72;;
9330;SDS011;4704;50.470;12.072;2023-06-19T00:53:58;7.95;;;7.35;;
9330;SDS011;4704;50.470;12.072;2023-06-19T00:56:25;7.93;;;7.32;;
9330;SDS011;4704;50.470;12.072;2023-06-19T00:58:55;8.30;;;7.60;;
9330;SDS011;4704;50.470;12.072;2023-06-19T01:01:23;8.05;;;7.35;;
9330;SDS011;4704;50.470;12.072;2023-06-19T01:03:51;8.35;;;7.55;;
9330;SDS011;4704;50.470;12.072;2023-06-19T01:06:20;8.23;;;7.53;;
9330;SDS011;4704;50.470;12.072;2023-06-19T01:08:51;7.70;;;7.10;;
9330;SDS011;4704;50.470;12.072;2023-06-19T01:11:23;8.45;;;7.82;;
9330;SDS011;4704;50.470;12.072;2023-06-19T01:13:53;8.23;;;7.53;;
9330;SDS011;4704;50.470;12.072;2023-06-19T01:16:24;8.18;;;7.47;;
9330;SDS011;4704;50.470;12.072;2023-06-19T01:18:52;8.65;;;7.93;;
9330;SDS011;4704;50.470;12.072;2023-06-19T01:21:20;7.78;;;7.20;;
9330;SDS011;4704;50.470;12.072;2023-06-19T01:23:49;8.10;;;7.50;;
9330;SDS011;4704;50.470;12.072;2023-06-19T01:26:16;8.23;;;7.45;;
9330;SDS011;4704;50.470;12.072;2023-06-19T01:28:44;7.82;;;7.22;;
9330;SDS011;4704;50.470;12.072;2023-06-19T01:31:13;8.02;;;7.32;;
9330;SDS011;4704;50.470;12.072;2023-06-19T01:33:42;8.15;;;7.50;;
9330;SDS011;4704;50.470;12.072;2023-06-19T01:36:10;7.60;;;7.00;;
9330;SDS011;4704;50.470;12.072;2023-06-19T01:38:37;8.18;;;7.55;;
9330;SDS011;4704;50.470;12.072;2023-06-19T01:41:07;8.48;;;7.75;;
9330;SDS011;4704;50.470;12.072;2023-06-19T01:43:35;8.70;;;8.00;;
9330;SDS011;4704;50.470;12.072;2023-06-19T01:46:04;8.45;;;7.75;;
9330;SDS011;4704;50.470;12.072;2023-06-19T01:48:31;8.05;;;7.45;;
9330;SDS011;4704;50.470;12.072;2023-06-19T01:50:59;8.30;;;7.70;;
9330;SDS011;4704;50.470;12.072;2023-06-19T01:53:29;8.70;;;8.10;;
9330;SDS011;4704;50.470;12.072;2023-06-19T01:55:57;8.98;;;8.27;;
9330;SDS011;4704;50.470;12.072;2023-06-19T01:58:27;8.77;;;8.07;;
9330;SDS011;4704;50.470;12.072;2023-06-19T02:00:54;8.35;;;7.75;;
9330;SDS011;4704;50.470;12.072;2023-06-19T02:03:22;8.40;;;7.80;;
9330;SDS011;4704;50.470;12.072;2023-06-19T02:05:49;8.20;;;7.60;;
9330;SDS011;4704;50.470;12.072;2023-06-19T02:08:16;8.65;;;8.05;;
9330;SDS011;4704;50.470;12.072;2023-06-19T02:10:44;8.40;;;7.80;;
9330;SDS011;4704;50.470;12.072;2023-06-19T02:13:12;8.18;;;7.57;;
9330;SDS011;4704;50.470;12.072;2023-06-19T02:15:41;7.90;;;7.35;;
9330;SDS011;4704;50.470;12.072;2023-06-19T02:18:08;8.32;;;7.53;;
9330;SDS011;4704;50.470;12.072;2023-06-19T02:20:36;8.43;;;7.80;;
9330;SDS011;4704;50.470;12.072;2023-06-19T02:23:04;8.73;;;8.02;;
9330;SDS011;4704;50.470;12.072;2023-06-19T02:25:32;8.77;;;8.07;;
9330;SDS011;4704;50.470;12.072;2023-06-19T02:28:00;8.60;;;7.90;;
9330;SDS011;4704;50.470;12.072;2023-06-19T02:30:28;8.60;;;8.00;;
9330;SDS011;4704;50.470;12.072;2023-06-19T02:32:57;7.93;;;7.32;;
9330;SDS011;4704;50.470;12.072;2023-06-19T02:35:25;8.48;;;7.88;;
9330;SDS011;4704;50.470;12.072;2023-06-19T02:37:53;8.57;;;7.97;;
9330;SDS011;4704;50.470;12.072;2023-06-19T02:40:20;8.60;;;7.90;;
9330;SDS011;4704;50.470;12.072;2023-06-19T02:42:48;8.40;;;7.70;;
9330;SDS011;4704;50.470;12.072;2023-06-19T02:45:15;8.55;;;7.85;;
9330;SDS011;4704;50.470;12.072;2023-06-19T02:47:43;8.10;;;7.50;;
9330;SDS011;4704;50.470;12.072;2023-06-19T02:50:12;8.40;;;7.80;;
9330;SDS011;4704;50.470;12.072;2023-06-19T02:52:40;9.27;;;8.48;;
9330;SDS011;4704;50.470;12.072;2023-06-19T02:55:08;8.52;;;7.93;;
9330;SDS011;4704;50.470;12.072;2023-06-19T02:57:35;9.20;;;8.40;;
9330;SDS011;4704;50.470;12.072;2023-06-19T03:00:03;8.73;;;8.02;;
9330;SDS011;4704;50.470;12.072;2023-06-19T03:02:34;9.60;;;8.80;;
9330;SDS011;4704;50.470;12.072;2023-06-19T03:05:02;8.98;;;8.20;;
9330;SDS011;4704;50.470;12.072;2023-06-19T03:07:31;8.85;;;8.18;;
9330;SDS011;4704;50.470;12.072;2023-06-19T03:09:58;9.07;;;8.38;;
9330;SDS011;4704;50.470;12.072;2023-06-19T03:12:26;8.88;;;8.18;;
9330;SDS011;4704;50.470;12.072;2023-06-19T03:14:53;8.60;;;8.00;;
9330;SDS011;4704;50.470;12.072;2023-06-19T03:17:21;8.93;;;8.02;;
9330;SDS011;4704;50.470;12.072;2023-06-19T03:19:49;9.20;;;8.40;;
9330;SDS011;4704;50.470;12.072;2023-06-19T03:22:17;8.57;;;7.97;;
9330;SDS011;4704;50.470;12.072;2023-06-19T03:24:46;9.20;;;8.50;;
9330;SDS011;4704;50.470;12.072;2023-06-19T03:27:13;9.35;;;8.65;;
9330;SDS011;4704;50.470;12.072;2023-06-19T03:29:40;8.63;;;8.02;;
9330;SDS011;4704;50.470;12.072;2023-06-19T03:32:08;9.18;;;8.48;;
9330;SDS011;4704;50.470;12.072;2023-06-19T03:34:35;8.88;;;8.23;;
9330;SDS011;4704;50.470;12.072;2023-06-19T03:37:03;9.18;;;8.38;;
9330;SDS011;4704;50.470;12.072;2023-06-19T03:39:31;9.02;;;8.32;;
9330;SDS011;4704;50.470;12.072;2023-06-19T03:41:59;9.48;;;8.77;;
9330;SDS011;4704;50.470;12.072;2023-06-19T03:44:27;9.48;;;8.57;;
9330;SDS011;4704;50.470;12.072;2023-06-19T03:46:54;8.85;;;8.15;;
9330;SDS011;4704;50.470;12.072;2023-06-19T03:49:22;9.50;;;8.75;;
9330;SDS011;4704;50.470;12.072;2023-06-19T03:51:49;9.13;;;8.43;;
9330;SDS011;4704;50.470;12.072;2023-06-19T03:54:17;9.50;;;8.80;;
9330;SDS011;4704;50.470;12.072;2023-06-19T03:56:44;9.25;;;8.45;;
9330;SDS011;4704;50.470;12.072;2023-06-19T03:59:13;9.13;;;8.43;;
9330;SDS011;4704;50.470;12.072;2023-06-19T04:01:41;9.20;;;8.50;;
9330;SDS011;4704;50.470;12.072;2023-06-19T04:04:08;9.32;;;8.63;;
9330;SDS011;4704;50.470;12.072;2023-06-19T04:06:35;8.90;;;8.20;;
9330;SDS011;4704;50.470;12.072;2023-06-19T04:09:03;8.77;;;8.07;;
9330;SDS011;4704;50.470;12.072;2023-06-19T04:11:31;9.27;;;8.50;;
9330;SDS011;4704;50.470;12.072;2023-06-19T04:13:58;8.98;;;8.38;;
9330;SDS011;4704;50.470;12.072;2023-06-19T04:16:27;8.90;;;8.20;;
9330;SDS011;4704;50.470;12.072;2023-06-19T04:18:54;8.93;;;8.27;;
9330;SDS011;4704;50.470;12.072;2023-06-19T04:21:22;9.25;;;8.55;;
9330;SDS011;4704;50.470;12.072;2023-06-19T04:23:49;8.85;;;8.15;;
9330;SDS011;4704;50.470;12.072;2023-06-19T04:26:17;8.27;;;7.68;;
9330;SDS011;4704;50.470;12.072;2023-06-19T04:28:46;8.93;;;8.23;;
9330;SDS011;4704;50.470;12.072;2023-06-19T04:31:13;9.30;;;8.52;;
9330;SDS011;4704;50.470;12.072;2023-06-19T04:33:44;8.98;;;8.27;;
9330;SDS011;4704;50.470;12.072;2023-06-19T04:36:11;9.50;;;8.80;;
9330;SDS011;4704;50.470;12.072;2023-06-19T04:38:39;8.98;;;8.20;;
9330;SDS011;4704;50.470;12.072;2023-06-19T04:41:07;9.43;;;8.68;;
9330;SDS011;4704;50.470;12.072;2023-06-19T04:43:34;9.43;;;8.73;;
9330;SDS011;4704;50.470;12.072;2023-06-19T04:46:01;9.10;;;8.40;;
9330;SDS011;4704;50.470;12.072;2023-06-19T04:48:29;8.90;;;8.20;;
9330;SDS011;4704;50.470;12.072;2023-06-19T04:50:57;9.23;;;8.43;;
9330;SDS011;4704;50.470;12.072;2023-06-19T04:53:26;9.73;;;8.93;;
9330;SDS011;4704;50.470;12.072;2023-06-19T04:55:53;9.32;;;8.63;;
9330;SDS011;4704;50.470;12.072;2023-06-19T04:58:21;9.10;;;8.45;;
9330;SDS011;4704;50.470;12.072;2023-06-19T05:00:48;9.60;;;8.80;;
9330;SDS011;4704;50.470;12.072;2023-06-19T05:03:16;9.48;;;8.77;;
9330;SDS011;4704;50.470;12.072;2023-06-19T05:05:44;10.05;;;9.25;;
9330;SDS011;4704;50.470;12.072;2023-06-19T05:08:13;9.27;;;8.52;;
9330;SDS011;4704;50.470;12.072;2023-06-19T05:10:41;9.32;;;8.63;;
9330;SDS011;4704;50.470;12.072;2023-06-19T05:13:08;9.20;;;8.50;;
9330;SDS011;4704;50.470;12.072;2023-06-19T05:15:35;8.98;;;8.27;;
9330;SDS011;4704;50.470;12.072;2023-06-19T05:18:02;9.50;;;8.80;;
9330;SDS011;4704;50.470;12.072;2023-06-19T05:20:30;9.57;;;8.88;;
9330;SDS011;4704;50.470;12.072;2023-06-19T05:22:58;9.63;;;8.93;;
9330;SDS011;4704;50.470;12.072;2023-06-19T05:25:26;9.65;;;8.85;;
9330;SDS011;4704;50.470;12.072;2023-06-19T05:27:53;9.98;;;9.18;;
9330;SDS011;4704;50.470;12.072;2023-06-19T05:30:21;9.38;;;8.68;;
9330;SDS011;4704;50.470;12.072;2023-06-19T05:32:51;9.77;;;9.07;;
9330;SDS011;4704;50.470;12.072;2023-06-19T05:35:21;9.38;;;8.70;;
9330;SDS011;4704;50.470;12.072;2023-06-19T05:37:48;9.73;;;9.02;;
9330;SDS011;4704;50.470;12.072;2023-06-19T05:40:16;9.70;;;8.85;;
9330;SDS011;4704;50.470;12.072;2023-06-19T05:42:44;9.73;;;9.02;;
9330;SDS011;4704;50.470;12.072;2023-06-19T05:47:48;9.32;;;8.52;;
9330;SDS011;4704;50.470;12.072;2023-06-19T05:50:15;9.73;;;8.93;;
9330;SDS011;4704;50.470;12.072;2023-06-19T05:52:42;9.98;;;9.18;;
9330;SDS011;4704;50.470;12.072;2023-06-19T05:55:10;9.38;;;8.70;;
9330;SDS011;4704;50.470;12.072;2023-06-19T05:57:38;9.68;;;8.98;;
9330;SDS011;4704;50.470;12.072;2023-06-19T06:00:07;10.10;;;9.30;;
9330;SDS011;4704;50.470;12.072;2023-06-19T06:02:39;10.27;;;9.48;;
9330;SDS011;4704;50.470;12.072;2023-06-19T06:05:07;9.43;;;8.73;;
9330;SDS011;4704;50.470;12.072;2023-06-19T06:07:35;9.65;;;8.93;;
9330;SDS011;4704;50.470;12.072;2023-06-19T06:10:03;10.23;;;9.45;;
9330;SDS011;4704;50.470;12.072;2023-06-19T06:12:30;9.02;;;8.32;;
9330;SDS011;4704;50.470;12.072;2023-06-19T06:15:00;9.52;;;8.82;;
9330;SDS011;4704;50.470;12.072;2023-06-19T06:17:29;9.10;;;8.32;;
9330;SDS011;4704;50.470;12.072;2023-06-19T06:19:56;9.07;;;8.38;;
9330;SDS011;4704;50.470;12.072;2023-06-19T06:22:24;8.93;;;8.23;;
9330;SDS011;4704;50.470;12.072;2023-06-19T06:24:51;9.38;;;8.68;;
9330;SDS011;4704;50.470;12.072;2023-06-19T06:27:19;8.38;;;7.68;;
9330;SDS011;4704;50.470;12.072;2023-06-19T06:29:47;9.88;;;9.07;;
9330;SDS011;4704;50.470;12.072;2023-06-19T06:32:14;9.15;;;8.45;;
9330;SDS011;4704;50.470;12.072;2023-06-19T06:34:42;8.65;;;7.95;;
9330;SDS011;4704;50.470;12.072;2023-06-19T06:37:10;9.38;;;8.68;;
9330;SDS011;4704;50.470;12.072;2023-06-19T06:39:37;8.60;;;8.00;;
9330;SDS011;4704;50.470;12.072;2023-06-19T06:42:05;9.75;;;9.05;;
9330;SDS011;4704;50.470;12.072;2023-06-19T06:44:32;8.70;;;8.00;;
9330;SDS011;4704;50.470;12.072;2023-06-19T06:46:59;9.55;;;8.85;;
9330;SDS011;4704;50.470;12.072;2023-06-19T06:49:27;9.48;;;8.70;;
9330;SDS011;4704;50.470;12.072;2023-06-19T06:51:56;9.27;;;8.57;;
9330;SDS011;4704;50.470;12.072;2023-06-19T06:54:24;10.05;;;9.35;;
9330;SDS011;4704;50.470;12.072;2023-06-19T06:56:51;9.18;;;8.38;;
9330;SDS011;4704;50.470;12.072;2023-06-19T06:59:21;9.68;;;8.90;;
9330;SDS011;4704;50.470;12.072;2023-06-19T07:01:49;9.10;;;8.40;;
9330;SDS011;4704;50.470;12.072;2023-06-19T07:04:17;9.70;;;8.90;;
9330;SDS011;4704;50.470;12.072;2023-06-19T07:06:44;9.23;;;8.52;;
9330;SDS011;4704;50.470;12.072;2023-06-19T07:09:13;9.60;;;8.82;;
9330;SDS011;4704;50.470;12.072;2023-06-19T07:11:41;9.30;;;8.60;;
9330;SDS011;4704;50.470;12.072;2023-06-19T07:14:08;9.50;;;8.80;;
9330;SDS011;4704;50.470;12.072;2023-06-19T07:16:36;9.25;;;8.55;;
9330;SDS011;4704;50.470;12.072;2023-06-19T07:19:03;8.82;;;8.18;;
9330;SDS011;4704;50.470;12.072;2023-06-19T07:21:30;9.52;;;8.82;;
9330;SDS011;4704;50.470;12.072;2023-06-19T07:23:58;9.77;;;9.07;;
9330;SDS011;4704;50.470;12.072;2023-06-19T07:26:27;10.25;;;9.45;;
9330;SDS011;4704;50.470;12.072;2023-06-19T07:28:54;9.63;;;8.93;;
9330;SDS011;4704;50.470;12.072;2023-06-19T07:31:22;9.55;;;8.85;;
9330;SDS011;4704;50.470;12.072;2023-06-19T07:33:49;10.18;;;9.25;;
9330;SDS011;4704;50.470;12.072;2023-06-19T07:36:16;10.07;;;9.27;;
9330;SDS011;4704;50.470;12.072;2023-06-19T07:38:45;10.43;;;9.52;;
9330;SDS011;4704;50.470;12.072;2023-06-19T07:41:13;10.00;;;9.20;;
9330;SDS011;4704;50.470;12.072;2023-06-19T07:43:42;10.25;;;9.43;;
9330;SDS011;4704;50.470;12.072;2023-06-19T07:46:09;10.27;;;9.48;;
9330;SDS011;4704;50.470;12.072;2023-06-19T07:48:37;10.50;;;9.50;;
9330;SDS011;4704;50.470;12.072;2023-06-19T07:51:04;10.55;;;9.55;;
9330;SDS011;4704;50.470;12.072;2023-06-19T07:53:31;10.35;;;9.55;;
9330;SDS011;4704;50.470;12.072;2023-06-19T07:55:59;10.32;;;9.48;;
9330;SDS011;4704;50.470;12.072;2023-06-19T07:58:26;10.40;;;9.55;;
9330;SDS011;4704;50.470;12.072;2023-06-19T08:00:56;10.80;;;9.93;;
9330;SDS011;4704;50.470;12.072;2023-06-19T08:03:24;10.30;;;9.40;;
9330;SDS011;4704;50.470;12.072;2023-06-19T08:05:51;10.20;;;9.27;;
9330;SDS011;4704;50.470;12.072;2023-06-19T08:08:18;10.10;;;9.20;;
9330;SDS011;4704;50.470;12.072;2023-06-19T08:10:46;10.25;;;9.43;;
9330;SDS011;4704;50.470;12.072;2023-06-19T08:13:13;10.27;;;9.48;;
9330;SDS011;4704;50.470;12.072;2023-06-19T08:15:40;10.20;;;9.30;;
9330;SDS011;4704;50.470;12.072;2023-06-19T08:18:11;10.00;;;9.23;;
9330;SDS011;4704;50.470;12.072;2023-06-19T08:20:38;10.68;;;9.60;;
9330;SDS011;4704;50.470;12.072;2023-06-19T08:23:05;10.20;;;9.45;;
9330;SDS011;4704;50.470;12.072;2023-06-19T08:25:33;10.45;;;9.52;;
9330;SDS011;4704;50.470;12.072;2023-06-19T08:28:00;10.00;;;9.18;;
9330;SDS011;4704;50.470;12.072;2023-06-19T08:30:27;10.27;;;9.48;;
9330;SDS011;4704;50.470;12.072;2023-06-19T08:32:54;10.45;;;9.57;;
9330;SDS011;4704;50.470;12.072;2023-06-19T08:35:23;10.43;;;9.63;;
9330;SDS011;4704;50.470;12.072;2023-06-19T08:37:50;11.00;;;10.10;;
9330;SDS011;4704;50.470;12.072;2023-06-19T08:40:19;10.10;;;9.35;;
9330;SDS011;4704;50.470;12.072;2023-06-19T08:42:47;10.55;;;9.75;;
9330;SDS011;4704;50.470;12.072;2023-06-19T08:45:14;10.82;;;9.75;;
9330;SDS011;4704;50.470;12.072;2023-06-19T08:47:43;10.88;;;9.98;;
9330;SDS011;4704;50.470;12.072;2023-06-19T08:50:11;10.82;;;9.93;;
9330;SDS011;4704;50.470;12.072;2023-06-19T08:52:40;10.70;;;9.80;;
9330;SDS011;4704;50.470;12.072;2023-06-19T08:55:07;10.93;;;10.07;;
9330;SDS011;4704;50.470;12.072;2023-06-19T08:57:35;10.80;;;10.00;;
9330;SDS011;4704;50.470;12.072;2023-06-19T09:00:04;10.55;;;9.75;;
9330;SDS011;4704;50.470;12.072;2023-06-19T09:02:36;11.35;;;10.25;;
9330;SDS011;4704;50.470;12.072;2023-06-19T09:05:10;11.43;;;10.43;;
9330;SDS011;4704;50.470;12.072;2023-06-19T09:07:39;11.00;;;10.20;;
9330;SDS011;4704;50.470;12.072;2023-06-19T09:10:14;10.95;;;10.05;;
9330;SDS011;4704;50.470;12.072;2023-06-19T09:12:42;11.60;;;10.45;;
9330;SDS011;4704;50.470;12.072;2023-06-19T09:15:13;11.50;;;10.60;;
9330;SDS011;4704;50.470;12.072;2023-06-19T09:17:40;10.75;;;9.93;;
9330;SDS011;4704;50.470;12.072;2023-06-19T09:20:08;11.60;;;10.70;;
9330;SDS011;4704;50.470;12.072;2023-06-19T09:22:37;10.77;;;9.98;;
9330;SDS011;4704;50.470;12.072;2023-06-19T09:25:06;11.18;;;10.38;;
9330;SDS011;4704;50.470;12.072;2023-06-19T09:27:35;11.05;;;10.05;;
9330;SDS011;4704;50.470;12.072;2023-06-19T09:30:04;11.38;;;10.38;;
9330;SDS011;4704;50.470;12.072;2023-06-19T09:32:33;11.07;;;10.27;;
9330;SDS011;4704;50.470;12.072;2023-06-19T09:35:01;11.60;;;10.60;;
9330;SDS011;4704;50.470;12.072;2023-06-19T09:37:29;11.18;;;10.27;;
9330;SDS011;4704;50.470;12.072;2023-06-19T09:39:57;10.38;;;9.57;;
9330;SDS011;4704;50.470;12.072;2023-06-19T09:42:27;11.52;;;10.48;;
9330;SDS011;4704;50.470;12.072;2023-06-19T09:44:58;11.63;;;10.68;;
9330;SDS011;4704;50.470;12.072;2023-06-19T09:47:27;11.48;;;10.57;;
9330;SDS011;4704;50.470;12.072;2023-06-19T09:49:56;11.48;;;10.57;;
9330;SDS011;4704;50.470;12.072;2023-06-19T09:52:24;11.50;;;10.60;;
9330;SDS011;4704;50.470;12.072;2023-06-19T09:54:53;11.40;;;10.55;;
9330;SDS011;4704;50.470;12.072;2023-06-19T09:57:21;11.93;;;11.02;;
9330;SDS011;4704;50.470;12.072;2023-06-19T09:59:51;11.15;;;10.30;;
9330;SDS011;4704;50.470;12.072;2023-06-19T10:02:20;11.32;;;10.32;;
9330;SDS011;4704;50.470;12.072;2023-06-19T10:04:49;11.48;;;10.48;;
9330;SDS011;4704;50.470;12.072;2023-06-19T10:07:17;10.90;;;10.07;;
9330;SDS011;4704;50.470;12.072;2023-06-19T10:09:58;11.13;;;10.30;;
9330;SDS011;4704;50.470;12.072;2023-06-19T10:12:35;11.43;;;10.52;;
9330;SDS011;4704;50.470;12.072;2023-06-19T10:15:15;11.00;;;10.20;;
9330;SDS011;4704;50.470;12.072;2023-06-19T10:17:45;11.55;;;10.55;;
9330;SDS011;4704;50.470;12.072;2023-06-19T10:20:21;11.95;;;11.00;;
9330;SDS011;4704;50.470;12.072;2023-06-19T10:22:59;11.65;;;10.75;;
9330;SDS011;4704;50.470;12.072;2023-06-19T10:25:30;11.57;;;10.52;;
9330;SDS011;4704;50.470;12.072;2023-06-19T10:27:58;11.18;;;10.18;;
9330;SDS011;4704;50.470;12.072;2023-06-19T10:30:28;11.70;;;10.60;;
9330;SDS011;4704;50.470;12.072;2023-06-19T10:32:57;10.85;;;10.05;;
9330;SDS011;4704;50.470;12.072;2023-06-19T10:35:24;11.00;;;10.20;;
9330;SDS011;4704;50.470;12.072;2023-06-19T10:37:51;11.80;;;10.82;;
9330;SDS011;4704;50.470;12.072;2023-06-19T10:40:19;11.32;;;10.43;;
9330;SDS011;4704;50.470;12.072;2023-06-19T10:42:46;11.27;;;10.38;;
9330;SDS011;4704;50.470;12.072;2023-06-19T10:45:14;10.77;;;9.98;;
9330;SDS011;4704;50.470;12.072;2023-06-19T10:47:47;11.48;;;10.57;;
9330;SDS011;4704;50.470;12.072;2023-06-19T10:50:15;10.82;;;10.02;;
9330;SDS011;4704;50.470;12.072;2023-06-19T10:52:42;11.30;;;10.40;;
9330;SDS011;4704;50.470;12.072;2023-06-19T10:55:11;11.32;;;10.48;;
9330;SDS011;4704;50.470;12.072;2023-06-19T10:57:40;10.98;;;10.18;;
9330;SDS011;4704;50.470;12.072;2023-06-19T11:00:11;10.68;;;9.88;;
9330;SDS011;4704;50.470;12.072;2023-06-19T11:02:39;12.25;;;11.07;;
9330;SDS011;4704;50.470;12.072;2023-06-19T11:05:10;11.38;;;10.55;;
9330;SDS011;4704;50.470;12.072;2023-06-19T11:07:38;11.20;;;10.40;;
9330;SDS011;4704;50.470;12.072;2023-06-19T11:10:07;10.95;;;10.05;;
9330;SDS011;4704;50.470;12.072;2023-06-19T11:12:34;10.27;;;9.57;;
9330;SDS011;4704;50.470;12.072;2023-06-19T11:15:05;10.80;;;10.00;;
9330;SDS011;4704;50.470;12.072;2023-06-19T11:17:32;10.88;;;9.98;;
9330;SDS011;4704;50.470;12.072;2023-06-19T11:20:00;11.00;;;10.20;;
9330;SDS011;4704;50.470;12.072;2023-06-19T11:22:38;11.13;;;10.27;;
9330;SDS011;4704;50.470;12.072;2023-06-19T11:25:07;10.68;;;9.77;;
9330;SDS011;4704;50.470;12.072;2023-06-19T11:27:36;11.40;;;10.45;;
9330;SDS011;4704;50.470;12.072;2023-06-19T11:30:04;11.10;;;10.30;;
9330;SDS011;4704;50.470;12.072;2023-06-19T11:32:33;10.95;;;10.15;;
9330;SDS011;4704;50.470;12.072;2023-06-19T11:35:06;10.52;;;9.63;;
9330;SDS011;4704;50.470;12.072;2023-06-19T11:37:34;9.98;;;9.18;;
9330;SDS011;4704;50.470;12.072;2023-06-19T11:40:03;10.27;;;9.38;;
9330;SDS011;4704;50.470;12.072;2023-06-19T11:42:47;10.57;;;9.77;;
9330;SDS011;4704;50.470;12.072;2023-06-19T11:45:15;10.15;;;9.35;;
9330;SDS011;4704;50.470;12.072;2023-06-19T11:47:43;10.18;;;9.38;;
9330;SDS011;4704;50.470;12.072;2023-06-19T11:50:11;10.02;;;9.32;;
9330;SDS011;4704;50.470;12.072;2023-06-19T11:52:38;10.05;;;9.25;;
9330;SDS011;4704;50.470;12.072;2023-06-19T11:55:08;9.50;;;8.80;;
9330;SDS011;4704;50.470;12.072;2023-06-19T11:57:35;9.80;;;9.00;;
9330;SDS011;4704;50.470;12.072;2023-06-19T12:00:03;9.57;;;8.80;;
9330;SDS011;4704;50.470;12.072;2023-06-19T12:02:34;8.70;;;8.00;;
9330;SDS011;4704;50.470;12.072;2023-06-19T12:05:01;8.63;;;8.02;;
9330;SDS011;4704;50.470;12.072;2023-06-19T12:07:29;8.80;;;8.10;;
9330;SDS011;4704;50.470;12.072;2023-06-19T12:09:56;9.55;;;8.75;;
9330;SDS011;4704;50.470;12.072;2023-06-19T12:12:25;8.25;;;7.60;;
9330;SDS011;4704;50.470;12.072;2023-06-19T12:14:52;8.80;;;8.20;;
9330;SDS011;4704;50.470;12.072;2023-06-19T12:17:19;8.23;;;7.50;;
9330;SDS011;4704;50.470;12.072;2023-06-19T12:19:47;8.30;;;7.70;;
9330;SDS011;4704;50.470;12.072;2023-06-19T12:22:15;8.93;;;7.93;;
9330;SDS011;4704;50.470;12.072;2023-06-19T12:24:42;7.93;;;7.32;;
9330;SDS011;4704;50.470;12.072;2023-06-19T12:27:10;7.78;;;7.18;;
9330;SDS011;4704;50.470;12.072;2023-06-19T12:29:39;7.10;;;6.60;;
9330;SDS011;4704;50.470;12.072;2023-06-19T12:32:06;7.30;;;6.70;;
9330;SDS011;4704;50.470;12.072;2023-06-19T12:34:34;7.68;;;6.97;;
9330;SDS011;4704;50.470;12.072;2023-06-19T12:37:01;7.75;;;7.15;;
9330;SDS011;4704;50.470;12.072;2023-06-19T12:39:29;7.22;;;6.72;;
9330;SDS011;4704;50.470;12.072;2023-06-19T12:41:56;7.13;;;6.50;;
9330;SDS011;4704;50.470;12.072;2023-06-19T12:44:24;6.80;;;6.30;;
9330;SDS011;4704;50.470;12.072;2023-06-19T12:46:52;7.55;;;6.93;;
9330;SDS011;4704;50.470;12.072;2023-06-19T12:49:20;6.75;;;6.25;;
9330;SDS011;4704;50.470;12.072;2023-06-19T12:51:47;6.95;;;6.35;;
9330;SDS011;4704;50.470;12.072;2023-06-19T12:54:17;6.75;;;6.22;;
9330;SDS011;4704;50.470;12.072;2023-06-19T12:56:44;7.50;;;6.90;;
9330;SDS011;4704;50.470;12.072;2023-06-19T12:59:11;7.05;;;6.45;;
9330;SDS011;4704;50.470;12.072;2023-06-19T13:01:39;6.30;;;5.90;;
9330;SDS011;4704;50.470;12.072;2023-06-19T13:04:08;6.70;;;6.20;;
9330;SDS011;4704;50.470;12.072;2023-06-19T13:06:35;6.57;;;6.07;;
9330;SDS011;4704;50.470;12.072;2023-06-19T13:09:03;6.97;;;6.47;;
9330;SDS011;4704;50.470;12.072;2023-06-19T13:11:30;6.53;;;6.03;;
9330;SDS011;4704;50.470;12.072;2023-06-19T13:13:59;6.22;;;5.72;;
9330;SDS011;4704;50.470;12.072;2023-06-19T13:16:27;6.60;;;6.10;;
9330;SDS011;4704;50.470;12.072;2023-06-19T13:18:55;6.80;;;6.30;;
9330;SDS011;4704;50.470;12.072;2023-06-19T13:21:24;6.75;;;6.25;;
9330;SDS011;4704;50.470;12.072;2023-06-19T13:23:51;6.78;;;6.28;;
9330;SDS011;4704;50.470;12.072;2023-06-19T13:26:18;7.15;;;6.60;;
9330;SDS011;4704;50.470;12.072;2023-06-19T13:28:46;7.22;;;6.72;;
9330;SDS011;4704;50.470;12.072;2023-06-19T13:31:13;6.78;;;6.28;;
9330;SDS011;4704;50.470;12.072;2023-06-19T13:33:41;7.20;;;6.60;;
9330;SDS011;4704;50.470;12.072;2023-06-19T13:36:08;7.10;;;6.60;;
9330;SDS011;4704;50.470;12.072;2023-06-19T13:38:37;7.35;;;6.85;;
9330;SDS011;4704;50.470;12.072;2023-06-19T13:41:04;7.78;;;7.18;;
9330;SDS011;4704;50.470;12.072;2023-06-19T13:43:32;7.00;;;6.50;;
9330;SDS011;4704;50.470;12.072;2023-06-19T13:45:59;7.60;;;7.00;;
9330;SDS011;4704;50.470;12.072;2023-06-19T13:48:28;7.72;;;7.13;;
9330;SDS011;4704;50.470;12.072;2023-06-19T13:50:56;7.75;;;7.10;;
9330;SDS011;4704;50.470;12.072;2023-06-19T13:53:24;7.85;;;7.25;;
9330;SDS011;4704;50.470;12.072;2023-06-19T13:55:55;7.65;;;7.05;;
9330;SDS011;4704;50.470;12.072;2023-06-19T13:58:23;7.75;;;7.15;;
9330;SDS011;4704;50.470;12.072;2023-06-19T14:00:50;7.75;;;7.15;;
9330;SDS011;4704;50.470;12.072;2023-06-19T14:03:18;7.32;;;6.72;;
9330;SDS011;4704;50.470;12.072;2023-06-19T14:05:45;7.63;;;7.03;;
9330;SDS011;4704;50.470;12.072;2023-06-19T14:08:12;7.40;;;6.80;;
9330;SDS011;4704;50.470;12.072;2023-06-19T14:10:40;8.07;;;7.50;;
9330;SDS011;4704;50.470;12.072;2023-06-19T14:13:09;7.70;;;7.10;;
9330;SDS011;4704;50.470;12.072;2023-06-19T14:15:37;7.50;;;7.00;;
9330;SDS011;4704;50.470;12.072;2023-06-19T14:18:07;7.85;;;7.25;;
9330;SDS011;4704;50.470;12.072;2023-06-19T14:20:34;7.70;;;7.20;;
9330;SDS011;4704;50.470;12.072;2023-06-19T14:23:02;8.50;;;7.90;;
9330;SDS011;4704;50.470;12.072;2023-06-19T14:25:29;7.75;;;7.22;;
9330;SDS011;4704;50.470;12.072;2023-06-19T14:27:57;7.55;;;7.05;;
9330;SDS011;4704;50.470;12.072;2023-06-19T14:30:25;7.80;;;7.30;;
9330;SDS011;4704;50.470;12.072;2023-06-19T14:32:53;7.70;;;7.10;;
9330;SDS011;4704;50.470;12.072;2023-06-19T14:35:20;7.65;;;7.05;;
9330;SDS011;4704;50.470;12.072;2023-06-19T14:37:48;8.02;;;7.43;;
9330;SDS011;4704;50.470;12.072;2023-06-19T14:40:15;8.30;;;7.60;;
9330;SDS011;4704;50.470;12.072;2023-06-19T14:42:42;7.22;;;6.70;;
9330;SDS011;4704;50.470;12.072;2023-06-19T14:45:10;7.25;;;6.65;;
9330;SDS011;4704;50.470;12.072;2023-06-19T14:47:39;7.30;;;6.80;;
9330;SDS011;4704;50.470;12.072;2023-06-19T14:50:07;7.90;;;7.30;;
9330;SDS011;4704;50.470;12.072;2023-06-19T14:52:35;7.65;;;7.05;;
9330;SDS011;4704;50.470;12.072;2023-06-19T14:55:02;7.25;;;6.70;;
9330;SDS011;4704;50.470;12.072;2023-06-19T14:57:30;7.18;;;6.68;;
9330;SDS011;4704;50.470;12.072;2023-06-19T14:59:57;7.25;;;6.75;;
9330;SDS011;4704;50.470;12.072;2023-06-19T15:02:24;7.00;;;6.40;;
9330;SDS011;4704;50.470;12.072;2023-06-19T15:04:53;7.50;;;6.90;;